Terminal Aerodrome Forecast
Issued by NWS

Home | Current Version | Previous Version | Text Only | Print | Product List | Glossary On
Versions: 1 2 3 4 5 6 7 8 9 10 11 12 13 14
000
FTUS46 KPDT 182300
TAFALW
TAF
KALW 182320Z 1900/1924 24012G20KT P6SM FEW150 SCT200
     FM190400 12006KT P6SM SCT150 SCT200
     FM190900 12008KT P6SM BKN130
     FM191800 23010G18KT P6SM BKN120
     FM192000 26015G25KT P6SM SCT090 BKN110=

USA.gov is the U.S. government's official web portal to all federal, state and local government web resources and services.